Time;durP1;ratioP1;P1;durP2;ratioP2;P2;SDS_P1;SDS_P2;PMS_P1;PMS_P2;Temp;Humidity;BMP_temperature;BMP_pressure;BME280_temperature;BME280_humidity;BME280_pressure;Samples;Min_cycle;Max_cycle;Signal;HPM_P1;HPM_P2
2022/11/29 00:00:08;;;;;;;46.17;19.35;;;;;;;3.68;100.00;98336.56;2607709;28;20084;-81
2022/11/29 00:01:28;;;;;;;49.40;20.20;;;;;;;3.92;100.00;98343.38;2608080;28;20049;-82
2022/11/29 00:02:44;;;;;;;48.05;20.58;;;;;;;3.86;100.00;98338.25;2607636;28;20079;-83
2022/11/29 00:04:00;;;;;;;55.95;20.55;;;;;;;3.80;100.00;98339.13;2608174;28;20052;-82
2022/11/29 00:05:15;;;;;;;51.50;20.98;;;;;;;3.78;100.00;98337.38;2607957;28;20471;-83
2022/11/29 00:06:33;;;;;;;50.90;21.45;;;;;;;3.91;100.00;98341.66;2607750;28;20863;-84
2022/11/29 00:07:48;;;;;;;54.00;21.13;;;;;;;4.06;100.00;98338.19;2607525;28;20427;-82
2022/11/29 00:09:08;;;;;;;51.45;21.95;;;;;;;4.01;100.00;98339.91;2607997;28;20068;-82
2022/11/29 00:10:23;;;;;;;55.90;21.33;;;;;;;3.89;100.00;98337.34;2607879;28;20135;-85
2022/11/29 00:13:16;;;;;;;49.10;20.60;;;;;;;4.01;100.00;98333.88;2607703;28;20496;-83
2022/11/29 00:14:31;;;;;;;49.03;20.90;;;;;;;4.07;100.00;98336.44;2607842;28;20052;-83
2022/11/29 00:15:47;;;;;;;56.13;22.58;;;;;;;3.78;100.00;98335.69;2607868;28;20154;-85
2022/11/29 00:17:03;;;;;;;49.13;19.88;;;;;;;3.70;100.00;98336.53;2607641;28;20056;-85
2022/11/29 00:18:18;;;;;;;52.85;21.60;;;;;;;3.78;100.00;98334.78;2608227;28;20079;-85
2022/11/29 00:19:35;;;;;;;49.17;21.10;;;;;;;3.98;100.00;98331.28;2607665;28;20114;-83
2022/11/29 00:20:51;;;;;;;52.60;20.77;;;;;;;4.14;100.00;98327.78;2607744;28;20068;-82
2022/11/29 00:22:07;;;;;;;50.05;21.55;;;;;;;4.18;100.00;98332.09;2607929;28;20060;-83
2022/11/29 00:23:23;;;;;;;49.10;20.60;;;;;;;4.16;100.00;98331.22;2607990;28;20419;-84
2022/11/29 00:24:38;;;;;;;55.33;21.92;;;;;;;4.21;100.00;98324.28;2607473;28;20530;-83
2022/11/29 00:26:01;;;;;;;50.70;20.63;;;;;;;4.09;100.00;98322.63;2607756;28;20990;-84
2022/11/29 00:27:17;;;;;;;47.95;20.85;;;;;;;3.86;100.00;98332.19;2607473;28;20056;-83
2022/11/29 00:28:34;;;;;;;52.08;19.90;;;;;;;3.81;100.00;98327.00;2607700;28;20472;-82
2022/11/29 00:29:49;;;;;;;53.55;21.50;;;;;;;3.87;100.00;98326.13;2607667;28;20049;-81
2022/11/29 00:31:16;;;;;;;45.35;21.08;;;;;;;4.02;100.00;98326.09;2607550;28;20122;-82
2022/11/29 00:32:32;;;;;;;45.00;20.15;;;;;;;4.06;100.00;98319.16;2607500;28;20103;-83
2022/11/29 00:33:48;;;;;;;52.53;21.40;;;;;;;3.85;100.00;98327.88;2607621;28;20156;-83
2022/11/29 00:35:04;;;;;;;55.42;22.40;;;;;;;4.09;100.00;98321.75;2607550;28;20053;-83
2022/11/29 00:36:20;;;;;;;54.92;22.48;;;;;;;4.17;100.00;98321.72;2607576;28;20139;-82
2022/11/29 00:37:36;;;;;;;60.75;22.55;;;;;;;3.95;100.00;98325.25;2607905;28;20064;-82
2022/11/29 00:38:51;;;;;;;64.18;22.42;;;;;;;3.74;100.00;98318.41;2607854;28;20076;-83
2022/11/29 00:40:07;;;;;;;53.13;21.50;;;;;;;3.76;100.00;98319.25;2607829;28;20052;-83
2022/11/29 00:41:24;;;;;;;58.63;21.63;;;;;;;3.74;100.00;98327.91;2608028;28;20722;-82
2022/11/29 00:42:39;;;;;;;61.80;25.05;;;;;;;3.79;100.00;98324.44;2607448;28;20053;-85
2022/11/29 00:43:55;;;;;;;56.53;24.55;;;;;;;3.97;100.00;98327.84;2607699;28;20048;-83
2022/11/29 00:45:11;;;;;;;64.57;26.75;;;;;;;4.03;100.00;98327.81;2607417;28;20087;-82
2022/11/29 00:46:27;;;;;;;57.38;23.55;;;;;;;4.18;100.00;98323.44;2607376;28;20052;-85
2022/11/29 00:47:42;;;;;;;54.90;21.52;;;;;;;3.71;100.00;98325.34;2607596;28;20049;-85
2022/11/29 00:48:58;;;;;;;61.10;22.88;;;;;;;3.84;100.00;98324.41;2607349;28;20495;-83
2022/11/29 00:50:13;;;;;;;54.05;22.27;;;;;;;3.57;100.00;98325.34;2607381;28;20080;-84
2022/11/29 00:51:29;;;;;;;57.00;22.90;;;;;;;3.65;100.00;98331.38;2606885;28;20437;-84
2022/11/29 00:52:45;;;;;;;56.08;21.70;;;;;;;3.55;100.00;98330.50;2607414;28;20048;-84
2022/11/29 00:54:00;;;;;;;52.47;20.95;;;;;;;3.53;100.00;98327.06;2607496;28;20071;-83
2022/11/29 00:55:16;;;;;;;54.47;19.95;;;;;;;3.48;100.00;98334.84;2607572;28;20057;-84
2022/11/29 00:56:32;;;;;;;53.70;21.17;;;;;;;3.58;100.00;98322.75;2607695;28;20048;-82
2022/11/29 00:57:47;;;;;;;57.10;21.92;;;;;;;3.66;100.00;98326.19;2607434;28;20518;-82
2022/11/29 00:59:03;;;;;;;61.83;22.50;;;;;;;3.78;100.00;98327.03;2607251;28;20083;-86
2022/11/29 01:00:18;;;;;;;51.38;21.10;;;;;;;3.57;100.00;98325.34;2607288;28;20049;-89
2022/11/29 01:01:34;;;;;;;58.50;22.25;;;;;;;3.57;100.00;98325.34;2606835;28;20080;-84
2022/11/29 01:02:50;;;;;;;58.83;22.02;;;;;;;3.39;100.00;98329.69;2607279;28;20048;-82
2022/11/29 01:04:05;;;;;;;56.70;21.42;;;;;;;3.36;100.00;98327.13;2607318;28;20479;-85
2022/11/29 01:05:21;;;;;;;57.05;22.80;;;;;;;3.46;100.00;98328.81;2607567;28;20057;-84
2022/11/29 01:06:37;;;;;;;57.35;20.60;;;;;;;3.40;100.00;98331.41;2607376;28;20053;-82
2022/11/29 01:07:52;;;;;;;57.50;21.48;;;;;;;3.38;100.00;98330.56;2607331;28;20052;-82
2022/11/29 01:09:08;;;;;;;54.30;20.88;;;;;;;3.58;100.00;98327.06;2607350;28;20053;-83
2022/11/29 01:10:24;;;;;;;55.53;21.45;;;;;;;3.42;100.00;98336.56;2607065;28;20106;-82
2022/11/29 01:11:40;;;;;;;60.83;21.55;;;;;;;3.73;100.00;98331.38;2607403;28;20063;-82
2022/11/29 01:12:55;;;;;;;55.88;21.52;;;;;;;3.97;100.00;98333.03;2607111;28;20049;-86
2022/11/29 01:14:11;;;;;;;53.40;21.75;;;;;;;3.77;100.00;98333.94;2607710;28;20045;-83
2022/11/29 01:15:27;;;;;;;56.83;22.02;;;;;;;3.99;100.00;98328.69;2607085;28;20083;-83
2022/11/29 01:16:43;;;;;;;50.88;21.27;;;;;;;3.73;100.00;98333.97;2607099;28;20083;-83
2022/11/29 01:17:59;;;;;;;56.60;21.98;;;;;;;3.74;100.00;98328.75;2607226;28;20053;-85
2022/11/29 01:19:14;;;;;;;60.53;22.38;;;;;;;3.73;100.00;98342.56;2607305;28;20485;-87
2022/11/29 01:20:30;;;;;;;49.65;20.65;;;;;;;3.71;100.00;98339.13;2607165;28;20053;-85
2022/11/29 01:21:45;;;;;;;56.42;22.50;;;;;;;3.66;100.00;98339.13;2607393;28;20079;-83
2022/11/29 01:23:01;;;;;;;54.45;21.10;;;;;;;3.74;100.00;98338.25;2607005;28;20465;-83
2022/11/29 01:24:16;;;;;;;57.20;21.63;;;;;;;3.86;100.00;98342.53;2607384;28;20049;-86
2022/11/29 01:25:32;;;;;;;53.75;22.20;;;;;;;3.92;100.00;98342.53;2607161;28;20041;-84
2022/11/29 01:26:48;;;;;;;64.30;22.95;;;;;;;4.00;100.00;98350.28;2607259;28;20510;-83
2022/11/29 01:28:03;;;;;;;51.33;20.80;;;;;;;3.95;100.00;98348.56;2607188;28;20045;-83
2022/11/29 01:29:19;;;;;;;55.80;20.98;;;;;;;3.80;100.00;98339.13;2607094;28;20045;-82
2022/11/29 01:30:36;;;;;;;52.50;21.00;;;;;;;3.90;100.00;98347.72;2607020;28;20045;-82
2022/11/29 01:31:52;;;;;;;49.45;20.40;;;;;;;3.92;100.00;98352.91;2607145;28;20148;-82
2022/11/29 01:33:07;;;;;;;56.95;21.45;;;;;;;3.89;100.00;98351.19;2606978;28;20056;-83
2022/11/29 01:34:23;;;;;;;60.40;21.65;;;;;;;3.84;100.00;98346.88;2607201;28;20045;-83
2022/11/29 01:35:38;;;;;;;49.83;21.77;;;;;;;3.86;100.00;98347.72;2607112;28;20057;-82
2022/11/29 01:36:54;;;;;;;51.72;20.92;;;;;;;3.81;100.00;98353.78;2607029;28;20056;-82
2022/11/29 01:38:09;;;;;;;52.95;21.63;;;;;;;3.85;100.00;98348.59;2607000;28;20060;-84
2022/11/29 01:39:25;;;;;;;49.95;21.48;;;;;;;3.90;100.00;98354.59;2607022;28;20091;-84
2022/11/29 01:40:41;;;;;;;59.28;21.50;;;;;;;3.87;100.00;98349.44;2607304;28;20059;-86
2022/11/29 01:41:59;;;;;;;59.83;20.95;;;;;;;3.93;100.00;98352.88;2607148;28;20578;-84
2022/11/29 01:43:16;;;;;;;55.28;21.80;;;;;;;4.07;100.00;98358.03;2607020;28;20098;-83
2022/11/29 01:44:31;;;;;;;52.97;21.25;;;;;;;3.72;100.00;98358.97;2607309;28;20474;-81
2022/11/29 01:45:49;;;;;;;51.25;21.45;;;;;;;3.73;100.00;98355.53;2606687;28;20045;-82
2022/11/29 01:47:04;;;;;;;53.53;21.13;;;;;;;3.87;100.00;98344.25;2606995;28;20170;-85
2022/11/29 01:48:24;;;;;;;52.55;20.95;;;;;;;3.82;100.00;98349.44;2606777;28;20049;-85
2022/11/29 01:49:47;;;;;;;50.67;20.50;;;;;;;3.86;100.00;98347.72;2606991;28;20060;-82
2022/11/29 01:51:06;;;;;;;56.80;22.35;;;;;;;3.80;100.00;98351.19;2606524;28;20048;-84
2022/11/29 01:52:30;;;;;;;60.15;21.33;;;;;;;4.02;100.00;98345.97;2606870;28;20168;-84
2022/11/29 01:53:45;;;;;;;58.45;21.92;;;;;;;3.92;100.00;98348.56;2606939;28;20102;-83
2022/11/29 01:55:04;;;;;;;56.53;21.55;;;;;;;3.82;100.00;98344.28;2607216;28;20537;-88
2022/11/29 01:56:20;;;;;;;52.30;21.20;;;;;;;3.74;100.00;98349.47;2606728;28;20548;-84
2022/11/29 01:57:39;;;;;;;53.45;19.73;;;;;;;3.82;100.00;98349.44;2606760;28;20494;-84
2022/11/29 01:58:55;;;;;;;50.75;21.65;;;;;;;3.89;100.00;98353.78;2606321;28;20154;-83
2022/11/29 02:00:14;;;;;;;55.75;20.80;;;;;;;4.06;100.00;98348.53;2606549;28;20115;-84
2022/11/29 02:01:30;;;;;;;51.75;20.25;;;;;;;4.03;100.00;98351.13;2606642;28;20049;-83
2022/11/29 02:03:02;;;;;;;56.53;21.48;;;;;;;4.14;100.00;98351.13;2606769;28;20052;-82
2022/11/29 02:04:18;;;;;;;52.38;21.45;;;;;;;4.16;100.00;98351.09;2606664;28;20056;-83
2022/11/29 02:05:35;;;;;;;55.17;21.23;;;;;;;4.05;100.00;98349.41;2606500;28;20045;-83
2022/11/29 02:06:51;;;;;;;52.50;21.38;;;;;;;4.17;100.00;98353.69;2606882;28;20115;-81
2022/11/29 02:08:09;;;;;;;57.15;21.02;;;;;;;4.15;100.00;98349.38;2606934;28;20364;-85
2022/11/29 02:09:25;;;;;;;54.78;21.65;;;;;;;4.22;100.00;98346.75;2606695;28;20048;-83
2022/11/29 02:11:14;;;;;;;51.08;21.08;;;;;;;4.24;100.00;98344.16;2606939;28;20049;-86
2022/11/29 02:12:49;;;;;;;50.03;19.45;;;;;;;4.06;100.00;98353.72;2607181;28;20053;-86
2022/11/29 02:14:08;;;;;;;56.22;21.33;;;;;;;4.24;100.00;98346.75;2606747;28;20052;-83
2022/11/29 02:15:29;;;;;;;50.65;22.08;;;;;;;4.25;100.00;98358.84;2606476;28;20133;-86
2022/11/29 02:17:25;;;;;;;54.53;22.33;;;;;;;4.22;100.00;98351.94;2606582;28;20053;-82
2022/11/29 02:19:01;;;;;;;49.03;20.02;;;;;;;4.19;100.00;98356.25;2601645;28;20060;-82
2022/11/29 02:20:30;;;;;;;51.22;20.27;;;;;;;4.28;100.00;98351.03;2606094;28;20106;-83
2022/11/29 02:21:55;;;;;;;50.58;19.98;;;;;;;4.21;100.00;98362.31;2606552;28;20530;-83
2022/11/29 02:23:39;;;;;;;53.03;20.77;;;;;;;4.09;100.00;98358.03;2606382;28;20488;-86
2022/11/29 02:25:04;;;;;;;52.15;19.67;;;;;;;4.16;100.00;98353.69;2606447;28;20041;-84
2022/11/29 02:26:53;;;;;;;46.33;19.92;;;;;;;4.24;100.00;98362.31;2606770;28;20053;-82
2022/11/29 02:28:43;;;;;;;44.88;18.75;;;;;;;4.31;100.00;98353.63;2606533;28;20145;-82
2022/11/29 02:30:38;;;;;;;44.10;18.80;;;;;;;4.33;100.00;98354.50;2606541;28;20063;-83
2022/11/29 02:32:18;;;;;;;47.40;19.48;;;;;;;4.31;100.00;98356.22;2606725;28;20080;-83
2022/11/29 02:34:06;;;;;;;45.10;19.08;;;;;;;4.33;100.00;98356.22;2606276;28;20044;-83
2022/11/29 02:35:36;;;;;;;46.30;19.05;;;;;;;4.33;100.00;98356.22;2606398;28;20053;-83
2022/11/29 02:37:27;;;;;;;49.03;19.00;;;;;;;4.17;100.00;98358.00;2606239;28;20064;-82
2022/11/29 02:39:21;;;;;;;47.45;20.08;;;;;;;4.28;100.00;98363.16;2601192;28;20139;-83
2022/11/29 02:40:59;;;;;;;50.35;20.58;;;;;;;4.25;100.00;98361.44;2606829;28;20076;-82
2022/11/29 02:42:30;;;;;;;49.90;19.95;;;;;;;4.25;100.00;98358.84;2606588;28;20049;-82
2022/11/29 02:44:14;;;;;;;51.92;20.70;;;;;;;4.32;100.00;98359.69;2606400;28;20057;-82
2022/11/29 02:45:29;;;;;;;;;;;;;;;4.31;100.00;98356.22;2607461;28;20061;-83
2022/11/29 02:47:14;;;;;;;49.70;19.88;;;;;;;4.21;100.00;98359.72;2606331;28;19924;-82
2022/11/29 02:48:48;;;;;;;48.05;19.15;;;;;;;4.23;100.00;98363.16;2606235;28;20044;-89
2022/11/29 02:50:30;;;;;;;53.20;20.52;;;;;;;4.27;100.00;98359.69;2606271;28;20159;-83
2022/11/29 02:51:57;;;;;;;55.03;19.27;;;;;;;4.31;100.00;98366.56;2606499;28;20049;-82
2022/11/29 02:53:21;;;;;;;57.53;21.20;;;;;;;4.35;100.00;98357.94;2606158;28;20139;-82
2022/11/29 02:55:11;;;;;;;58.22;21.65;;;;;;;4.32;100.00;98354.50;2606572;28;20053;-84
2022/11/29 02:56:43;;;;;;;46.22;20.13;;;;;;;4.36;100.00;98353.59;2606392;28;20060;-83
2022/11/29 02:58:22;;;;;;;49.20;20.25;;;;;;;4.34;100.00;98353.63;2606093;28;20056;-85
2022/11/29 02:59:38;;;;;;;50.90;19.98;;;;;;;4.35;100.00;98351.88;2606069;28;20506;-83
2022/11/29 03:01:31;;;;;;;45.25;19.58;;;;;;;4.26;100.00;98351.91;2606370;28;20072;-84
2022/11/29 03:02:49;;;;;;;54.42;19.85;;;;;;;4.11;100.00;98351.09;2606305;28;20508;-82
2022/11/29 03:04:27;;;;;;;48.95;20.05;;;;;;;3.96;100.00;98354.63;2606490;28;20509;-83
2022/11/29 03:05:58;;;;;;;54.17;21.52;;;;;;;3.86;100.00;98353.78;2606328;28;20048;-86
2022/11/29 03:07:37;;;;;;;55.92;20.42;;;;;;;4.08;100.00;98356.28;2606633;28;20052;-82
2022/11/29 03:09:09;;;;;;;49.15;20.15;;;;;;;4.02;100.00;98357.19;2606098;28;20084;-82
2022/11/29 03:10:36;;;;;;;52.60;20.85;;;;;;;4.15;100.00;98359.72;2606265;28;20055;-86
2022/11/29 03:12:13;;;;;;;57.10;20.60;;;;;;;4.22;100.00;98359.69;2606387;28;20084;-82
2022/11/29 03:13:38;;;;;;;48.88;20.38;;;;;;;4.25;100.00;98364.03;2606457;28;20322;-84
2022/11/29 03:15:06;;;;;;;55.28;20.92;;;;;;;4.11;100.00;98364.06;2606398;28;20072;-84
2022/11/29 03:16:37;;;;;;;52.70;21.17;;;;;;;4.01;100.00;98367.56;2606194;28;20076;-83
2022/11/29 03:18:17;;;;;;;51.70;20.45;;;;;;;3.93;100.00;98376.19;2606243;28;20056;-82
2022/11/29 03:19:59;;;;;;;54.03;21.10;;;;;;;4.06;100.00;98364.09;2606057;28;20077;-84
2022/11/29 03:21:21;;;;;;;51.25;20.13;;;;;;;4.18;100.00;98370.06;2606555;28;20492;-82
2022/11/29 03:22:42;;;;;;;48.38;20.45;;;;;;;4.19;100.00;98364.03;2606364;28;20049;-82
2022/11/29 03:24:08;;;;;;;49.60;21.33;;;;;;;4.05;100.00;98369.25;2606436;28;20114;-83
2022/11/29 03:25:39;;;;;;;48.78;21.63;;;;;;;3.87;100.00;98370.16;2608202;28;20218;-82
2022/11/29 03:27:00;;;;;;;51.75;21.77;;;;;;;3.78;100.00;98374.53;2608081;28;20484;-83
2022/11/29 03:28:21;;;;;;;47.72;21.05;;;;;;;3.78;100.00;98376.22;2608457;28;20114;-84
2022/11/29 03:29:49;;;;;;;55.33;22.10;;;;;;;3.89;100.00;98377.06;2608164;28;20408;-83
2022/11/29 03:31:32;;;;;;;51.60;20.85;;;;;;;3.93;100.00;98373.59;2608482;28;20080;-86
2022/11/29 03:32:59;;;;;;;56.28;20.88;;;;;;;3.89;100.00;98376.19;2608364;28;20592;-85
2022/11/29 03:34:53;;;;;;;53.08;21.30;;;;;;;3.81;100.00;98382.28;2608280;28;20333;-86
2022/11/29 03:36:44;;;;;;;47.45;19.00;;;;;;;4.02;100.00;98379.66;2608456;28;20064;-82
2022/11/29 03:38:19;;;;;;;48.47;19.50;;;;;;;3.94;100.00;98377.06;2608257;28;20052;-82
2022/11/29 03:39:43;;;;;;;48.50;20.95;;;;;;;4.00;100.00;98371.88;2608128;28;20049;-82
2022/11/29 03:41:12;;;;;;;51.20;20.73;;;;;;;3.96;100.00;98378.78;2608108;28;20780;-83
2022/11/29 03:42:41;;;;;;;53.78;21.02;;;;;;;3.90;100.00;98381.38;2608273;28;20060;-83
2022/11/29 03:44:10;;;;;;;54.05;21.67;;;;;;;4.14;100.00;98381.31;2608215;28;20049;-82
2022/11/29 03:45:54;;;;;;;49.45;21.40;;;;;;;4.00;100.00;98378.78;2607977;28;20052;-83
2022/11/29 03:47:18;;;;;;;51.53;19.48;;;;;;;4.12;100.00;98388.25;2608247;28;20856;-82
2022/11/29 03:48:41;;;;;;;50.53;20.98;;;;;;;4.06;100.00;98381.34;2608333;28;20757;-83
2022/11/29 03:50:05;;;;;;;49.83;21.63;;;;;;;4.16;100.00;98375.28;2608028;28;20080;-82
2022/11/29 03:51:33;;;;;;;47.45;20.40;;;;;;;4.20;100.00;98382.16;2608129;28;20140;-83
2022/11/29 03:53:02;;;;;;;49.47;20.00;;;;;;;4.20;100.00;98379.56;2607851;28;20506;-83
2022/11/29 03:54:25;;;;;;;48.92;19.98;;;;;;;4.25;100.00;98379.56;2608426;28;20044;-83
2022/11/29 03:55:51;;;;;;;46.75;19.70;;;;;;;4.17;100.00;98383.91;2608519;28;20483;-82
2022/11/29 03:57:07;;;;;;;49.75;20.73;;;;;;;4.19;100.00;98376.97;2608262;28;20406;-84
2022/11/29 03:59:09;;;;;;;46.15;20.40;;;;;;;4.18;100.00;98376.13;2607856;28;20148;-84
2022/11/29 04:00:34;;;;;;;39.67;17.92;;;;;;;4.23;100.00;98381.31;2607734;28;20075;-83
2022/11/29 04:02:03;;;;;;;46.05;19.35;;;;;;;4.18;100.00;98381.31;2607755;28;20107;-83
2022/11/29 04:03:45;;;;;;;43.30;18.45;;;;;;;4.21;100.00;98381.31;2608024;28;20053;-82
2022/11/29 04:05:16;;;;;;;42.45;18.95;;;;;;;4.20;100.00;98382.16;2607944;28;20073;-83
2022/11/29 04:06:59;;;;;;;44.63;18.23;;;;;;;4.23;100.00;98386.50;2608276;28;20489;-82
2022/11/29 04:08:48;;;;;;;40.20;18.17;;;;;;;4.25;100.00;98379.56;2607586;28;20056;-83
2022/11/29 04:10:09;;;;;;;46.03;19.08;;;;;;;4.32;100.00;98381.25;2607646;28;20049;-82
2022/11/29 04:11:57;;;;;;;45.57;17.73;;;;;;;4.33;100.00;98382.13;2607723;28;20072;-85
2022/11/29 04:13:22;;;;;;;44.13;18.02;;;;;;;4.38;100.00;98383.84;2608052;28;20450;-84
2022/11/29 04:14:56;;;;;;;41.88;18.60;;;;;;;4.36;100.00;98384.72;2608086;28;20190;-82
2022/11/29 04:16:33;;;;;;;43.58;20.85;;;;;;;4.30;100.00;98387.34;2608026;28;20140;-87
2022/11/29 04:18:00;;;;;;;41.95;19.63;;;;;;;4.37;100.00;98392.50;2607474;28;20049;-83
2022/11/29 04:19:53;;;;;;;43.20;19.73;;;;;;;4.41;100.00;98387.28;2607775;28;20748;-82
2022/11/29 04:21:30;;;;;;;40.42;18.33;;;;;;;4.36;100.00;98383.00;2607969;28;20060;-82
2022/11/29 04:22:52;;;;;;;39.83;17.90;;;;;;;4.38;100.00;98389.03;2607944;28;20052;-84
2022/11/29 04:24:29;;;;;;;46.08;18.75;;;;;;;4.47;100.00;98387.25;2607595;28;20091;-83
2022/11/29 04:25:57;;;;;;;36.33;17.05;;;;;;;4.41;100.00;98385.56;2607990;28;20241;-83
2022/11/29 04:27:12;;;;;;;36.13;17.67;;;;;;;4.46;100.00;98386.41;2607660;28;20053;-82
2022/11/29 04:28:57;;;;;;;39.22;17.25;;;;;;;4.40;100.00;98389.03;2607695;28;20138;-86
2022/11/29 04:30:18;;;;;;;37.17;16.27;;;;;;;4.14;100.00;98383.91;2607506;28;20075;-85
2022/11/29 04:32:01;;;;;;;45.60;19.33;;;;;;;4.15;100.00;98396.00;2607439;28;20600;-82
2022/11/29 04:33:54;;;;;;;44.17;19.23;;;;;;;4.17;100.00;98391.69;2607291;28;20090;-82
2022/11/29 04:35:52;;;;;;;48.70;19.30;;;;;;;4.36;100.00;98393.34;2607569;28;20098;-83
2022/11/29 04:37:36;;;;;;;40.38;16.38;;;;;;;4.45;100.00;98396.75;2606958;28;20053;-81
2022/11/29 04:39:20;;;;;;;47.58;18.48;;;;;;;4.13;100.00;98395.16;2607695;28;20392;-83
2022/11/29 04:40:36;;;;;;;46.78;18.70;;;;;;;4.14;100.00;98395.16;2607423;28;20136;-84
2022/11/29 04:42:19;;;;;;;45.58;19.55;;;;;;;4.05;100.00;98398.63;2607694;28;20411;-82
2022/11/29 04:43:37;;;;;;;;;;;;;;;4.07;100.00;98401.22;2608144;28;20291;-84
2022/11/29 04:45:19;;;;;;;42.25;18.70;;;;;;;3.93;100.00;98404.69;2607621;28;19924;-86
2022/11/29 04:46:53;;;;;;;46.88;18.88;;;;;;;3.94;100.00;98403.81;2602694;28;21105;-83
2022/11/29 04:48:36;;;;;;;47.38;17.48;;;;;;;4.01;100.00;98406.41;2606382;28;20049;-83
2022/11/29 04:50:28;;;;;;;43.78;17.63;;;;;;;3.99;100.00;98403.81;2606494;28;20607;-81
2022/11/29 04:52:09;;;;;;;47.55;18.38;;;;;;;4.06;100.00;98408.13;2607257;28;20060;-81
2022/11/29 04:53:43;;;;;;;43.97;16.58;;;;;;;3.99;100.00;98416.78;2607299;28;20115;-82
2022/11/29 04:55:17;;;;;;;41.80;18.25;;;;;;;4.02;100.00;98416.75;2607766;28;20111;-82
2022/11/29 04:56:48;;;;;;;44.40;17.15;;;;;;;3.91;100.00;98409.00;2607300;28;20094;-81
2022/11/29 04:58:15;;;;;;;49.03;17.92;;;;;;;3.85;100.00;98414.22;2607440;28;20107;-82
2022/11/29 04:59:43;;;;;;;52.92;19.65;;;;;;;4.11;100.00;98405.50;2606949;28;20095;-83
2022/11/29 05:01:05;;;;;;;42.67;17.55;;;;;;;4.19;100.00;98408.06;2607490;28;20080;-81
2022/11/29 05:02:51;;;;;;;40.17;16.77;;;;;;;4.26;100.00;98408.91;2607127;28;20529;-81
2022/11/29 05:04:22;;;;;;;40.67;16.75;;;;;;;4.30;100.00;98405.47;2606912;28;20094;-81
2022/11/29 05:05:52;;;;;;;38.13;16.10;;;;;;;4.15;100.00;98416.72;2607029;28;20130;-81
2022/11/29 05:07:35;;;;;;;41.20;18.08;;;;;;;4.27;100.00;98411.53;2607079;28;20052;-81
2022/11/29 05:09:09;;;;;;;44.08;17.85;;;;;;;4.35;100.00;98408.91;2606377;28;20057;-82
2022/11/29 05:10:28;;;;;;;45.08;17.85;;;;;;;4.35;100.00;98416.69;2607013;28;20056;-85
2022/11/29 05:12:13;;;;;;;43.13;17.90;;;;;;;4.25;100.00;98415.84;2607066;28;20068;-81
2022/11/29 05:13:55;;;;;;;44.33;17.58;;;;;;;4.34;100.00;98422.72;2606912;28;20131;-82
2022/11/29 05:15:20;;;;;;;39.13;16.63;;;;;;;4.38;100.00;98411.47;2607081;28;20095;-86
2022/11/29 05:16:58;;;;;;;41.75;17.63;;;;;;;4.27;100.00;98421.03;2607478;28;20128;-83
2022/11/29 05:18:32;;;;;;;41.00;17.25;;;;;;;4.21;100.00;98427.94;2607084;28;20072;-82
2022/11/29 05:19:54;;;;;;;41.33;17.27;;;;;;;4.14;100.00;98423.66;2607011;28;20048;-84
2022/11/29 05:21:48;;;;;;;39.45;17.30;;;;;;;4.15;100.00;98427.09;2607155;28;20380;-83
2022/11/29 05:23:15;;;;;;;;;;;;;;;4.29;100.00;98424.50;2607976;28;20075;-82
2022/11/29 05:24:51;;;;;;;39.58;16.13;;;;;;;4.23;100.00;98425.38;2607037;28;19956;-81
2022/11/29 05:26:13;;;;;;;44.28;19.20;;;;;;;4.35;100.00;98425.34;2607069;28;20419;-82
2022/11/29 05:28:01;;;;;;;47.65;18.50;;;;;;;4.21;100.00;98430.53;2607258;28;20048;-81
2022/11/29 05:29:30;;;;;;;44.97;18.75;;;;;;;4.37;100.00;98433.97;2597747;28;20140;-81
2022/11/29 05:31:03;;;;;;;48.75;19.33;;;;;;;4.46;100.00;98429.59;2607195;28;20167;-82
2022/11/29 05:32:32;;;;;;;42.78;17.67;;;;;;;4.41;100.00;98432.22;2606791;28;20049;-83
2022/11/29 05:34:18;;;;;;;47.05;19.10;;;;;;;4.37;100.00;98428.78;2606785;28;20436;-81
2022/11/29 05:36:12;;;;;;;40.08;17.67;;;;;;;4.38;100.00;98429.63;2607045;28;20079;-83
2022/11/29 05:37:42;;;;;;;45.60;17.83;;;;;;;4.41;100.00;98427.03;2601185;28;20309;-85
2022/11/29 05:39:21;;;;;;;39.92;17.60;;;;;;;4.41;100.00;98431.34;2606417;28;20045;-83
2022/11/29 05:40:42;;;;;;;39.78;17.58;;;;;;;4.35;100.00;98427.94;2606307;28;20399;-80
2022/11/29 05:42:10;;;;;;;40.33;17.42;;;;;;;4.31;100.00;98428.78;2606671;28;20052;-87
2022/11/29 05:43:41;;;;;;;42.88;17.70;;;;;;;4.32;100.00;98434.84;2606563;28;20491;-88
2022/11/29 05:45:07;;;;;;;42.95;18.65;;;;;;;4.29;100.00;98425.34;2606707;28;20053;-81
2022/11/29 05:46:48;;;;;;;42.42;19.35;;;;;;;4.33;100.00;98431.38;2606395;28;20120;-85
2022/11/29 05:48:16;;;;;;;44.97;18.00;;;;;;;4.13;100.00;98434.03;2606192;28;20502;-84
2022/11/29 05:50:04;;;;;;;47.85;19.30;;;;;;;4.06;100.00;98430.56;2606149;28;20047;-82
2022/11/29 05:51:31;;;;;;;43.92;18.67;;;;;;;4.24;100.00;98437.44;2598066;28;20052;-85
2022/11/29 05:52:54;;;;;;;47.17;20.05;;;;;;;4.07;100.00;98437.47;2606389;28;20045;-81
2022/11/29 05:54:28;;;;;;;42.70;18.50;;;;;;;4.19;100.00;98436.59;2606198;28;20073;-84
2022/11/29 05:56:11;;;;;;;40.97;19.60;;;;;;;4.32;100.00;98434.84;2606435;28;20049;-81
2022/11/29 05:57:40;;;;;;;47.67;19.08;;;;;;;4.40;100.00;98440.00;2606685;28;20468;-81
2022/11/29 05:59:02;;;;;;;44.67;18.88;;;;;;;4.45;100.00;98443.44;2606267;28;20203;-81
2022/11/29 06:00:18;;;;;;;44.83;19.10;;;;;;;4.46;100.00;98443.44;2606697;28;20061;-81
2022/11/29 06:01:49;;;;;;;48.42;19.55;;;;;;;4.46;100.00;98447.75;2606325;28;20040;-81
2022/11/29 06:03:05;;;;;;;44.83;18.95;;;;;;;4.48;100.00;98440.84;2605865;28;20160;-81
2022/11/29 06:04:34;;;;;;;45.08;19.98;;;;;;;4.45;100.00;98449.50;2606970;28;20048;-81
2022/11/29 06:05:57;;;;;;;50.15;19.35;;;;;;;4.44;100.00;98455.53;2606821;28;20390;-81
2022/11/29 06:07:22;;;;;;;45.17;18.85;;;;;;;4.37;100.00;98444.34;2605970;28;20047;-81
2022/11/29 06:08:50;;;;;;;40.10;18.45;;;;;;;4.37;100.00;98452.09;2605945;28;20107;-81
2022/11/29 06:10:23;;;;;;;48.70;19.48;;;;;;;4.45;100.00;98456.38;2605604;28;20102;-81
2022/11/29 06:11:47;;;;;;;41.85;18.00;;;;;;;4.42;100.00;98451.22;2606898;28;20055;-84
2022/11/29 06:13:14;;;;;;;41.85;17.77;;;;;;;4.42;100.00;98451.22;2606486;28;20045;-82
2022/11/29 06:14:55;;;;;;;41.42;17.00;;;;;;;4.43;100.00;98452.94;2606474;28;20476;-81
2022/11/29 06:16:38;;;;;;;45.78;16.83;;;;;;;4.49;100.00;98453.78;2606117;28;20080;-81
2022/11/29 06:18:22;;;;;;;36.50;15.40;;;;;;;4.35;100.00;98461.63;2605792;28;20055;-81
2022/11/29 06:19:59;;;;;;;40.17;17.20;;;;;;;4.06;100.00;98461.66;2606343;28;20048;-81
2022/11/29 06:21:26;;;;;;;40.53;18.02;;;;;;;4.03;100.00;98459.94;2606735;28;20462;-86
2022/11/29 06:22:44;;;;;;;41.35;18.05;;;;;;;4.28;100.00;98466.81;2606395;28;20526;-85
2022/11/29 06:24:15;;;;;;;40.70;17.85;;;;;;;4.35;100.00;98464.22;2606114;28;20087;-82
2022/11/29 06:25:45;;;;;;;39.60;16.50;;;;;;;4.11;100.00;98470.28;2606356;28;20072;-82
2022/11/29 06:27:38;;;;;;;36.83;15.70;;;;;;;4.42;100.00;98466.78;2606570;28;20412;-84
2022/11/29 06:29:18;;;;;;;37.75;16.08;;;;;;;4.44;100.00;98470.22;2606522;28;20076;-82
2022/11/29 06:31:01;;;;;;;42.60;17.45;;;;;;;4.15;100.00;98473.75;2606407;28;20072;-82
2022/11/29 06:32:20;;;;;;;42.83;16.85;;;;;;;4.09;100.00;98477.19;2606674;28;20064;-82
2022/11/29 06:33:47;;;;;;;39.15;16.38;;;;;;;4.21;100.00;98476.34;2606330;28;20555;-81
2022/11/29 06:35:10;;;;;;;39.40;16.15;;;;;;;4.15;100.00;98482.41;2606333;28;20598;-86
2022/11/29 06:36:41;;;;;;;44.25;17.35;;;;;;;4.13;100.00;98475.47;2606809;28;20497;-81
2022/11/29 06:38:00;;;;;;;37.17;15.48;;;;;;;4.22;100.00;98473.72;2606803;28;20558;-82
2022/11/29 06:39:16;;;;;;;37.88;15.93;;;;;;;4.28;100.00;98480.63;2606382;28;20642;-82
2022/11/29 06:40:32;;;;;;;47.35;17.30;;;;;;;4.12;100.00;98485.00;2606042;28;20130;-81
2022/11/29 06:41:47;;;;;;;41.40;16.95;;;;;;;4.03;100.00;98482.41;2606578;28;20049;-89